createdAt,value
2022-10-02T00:00:35.329Z,11.20
2022-10-02T00:03:16.889Z,11.53
2022-10-02T00:05:49.940Z,10.53
2022-10-02T00:08:24.290Z,14.07
2022-10-02T00:10:56.668Z,11.73
2022-10-02T00:13:29.981Z,11.77
2022-10-02T00:15:59.334Z,10.10
2022-10-02T00:18:32.595Z,9.93
2022-10-02T00:21:05.261Z,10.00
2022-10-02T00:23:38.804Z,11.80
2022-10-02T00:26:14.127Z,13.00
2022-10-02T00:28:51.265Z,11.70
2022-10-02T00:31:34.931Z,11.00
2022-10-02T00:34:20.522Z,15.27
2022-10-02T00:37:00.268Z,10.97
2022-10-02T00:39:41.384Z,11.05
2022-10-02T00:42:43.720Z,16.03
2022-10-02T00:45:39.535Z,12.03
2022-10-02T00:48:21.256Z,19.10
2022-10-02T00:51:00.306Z,12.00
2022-10-02T00:53:40.018Z,13.13
2022-10-02T00:56:16.154Z,18.20
2022-10-02T00:59:00.910Z,16.70
2022-10-02T01:01:37.975Z,13.43
2022-10-02T01:04:10.776Z,14.37
2022-10-02T01:06:41.117Z,19.13
2022-10-02T01:09:09.828Z,12.37
2022-10-02T01:11:39.310Z,14.37
2022-10-02T01:14:08.141Z,16.47
2022-10-02T01:16:36.949Z,15.20
2022-10-02T01:19:06.409Z,11.60
2022-10-02T01:21:43.556Z,12.40
2022-10-02T01:24:20.942Z,12.27
2022-10-02T01:26:50.962Z,16.33
2022-10-02T01:29:19.811Z,15.57
2022-10-02T01:31:48.474Z,15.23
2022-10-02T01:34:17.182Z,19.37
2022-10-02T01:36:46.194Z,21.63
2022-10-02T01:39:15.040Z,15.60
2022-10-02T01:41:45.540Z,16.57
2022-10-02T01:44:17.277Z,16.43
2022-10-02T01:46:57.189Z,17.83
2022-10-02T01:49:40.451Z,14.97
2022-10-02T01:52:21.193Z,15.50
2022-10-02T01:55:07.813Z,13.70
2022-10-02T01:57:54.261Z,17.63
2022-10-02T02:00:25.795Z,12.73
2022-10-02T02:03:00.991Z,11.47
2022-10-02T02:05:44.251Z,12.87
2022-10-02T02:08:19.966Z,14.23
2022-10-02T02:10:56.658Z,15.88
2022-10-02T02:13:29.648Z,15.33
2022-10-02T02:16:06.233Z,12.03
2022-10-02T02:18:40.368Z,12.20
2022-10-02T02:21:22.064Z,12.20
2022-10-02T02:23:53.101Z,10.67
2022-10-02T02:26:24.348Z,11.70
2022-10-02T02:28:55.592Z,12.60
2022-10-02T02:31:31.223Z,12.17
2022-10-02T02:34:03.953Z,11.70
2022-10-02T02:36:37.851Z,11.03
2022-10-02T02:39:10.507Z,12.13
2022-10-02T02:41:43.128Z,15.25
2022-10-02T02:44:19.803Z,9.52
2022-10-02T02:47:04.696Z,9.57
2022-10-02T02:49:40.461Z,8.40
2022-10-02T02:52:15.168Z,10.53
2022-10-02T02:54:48.083Z,9.63
2022-10-02T02:57:19.008Z,11.43
2022-10-02T02:59:51.321Z,12.13
2022-10-02T03:02:21.415Z,10.10
2022-10-02T03:04:50.025Z,11.73
2022-10-02T03:07:19.123Z,7.63
2022-10-02T03:09:58.069Z,9.83
2022-10-02T03:12:40.602Z,7.50
2022-10-02T03:15:24.039Z,9.43
2022-10-02T03:18:09.383Z,13.10
2022-10-02T03:20:43.618Z,7.03
2022-10-02T03:23:19.095Z,9.35
2022-10-02T03:25:54.919Z,9.50
2022-10-02T03:28:53.973Z,10.00
2022-10-02T03:31:20.501Z,9.40
2022-10-02T03:33:53.605Z,9.80
2022-10-02T03:36:24.642Z,9.27
2022-10-02T03:39:19.900Z,11.10
2022-10-02T03:41:44.139Z,10.68
2022-10-02T03:44:12.780Z,8.77
2022-10-02T03:46:41.468Z,9.67
2022-10-02T03:49:11.469Z,10.63
2022-10-02T03:51:40.175Z,8.05
2022-10-02T03:54:17.027Z,12.37
2022-10-02T03:56:53.273Z,7.23
2022-10-02T03:59:32.921Z,10.47
2022-10-02T04:02:04.298Z,9.10
2022-10-02T04:04:43.390Z,8.17
2022-10-02T04:07:18.967Z,7.77
2022-10-02T04:09:53.146Z,6.17
2022-10-02T04:12:26.894Z,10.25
2022-10-02T04:14:58.899Z,11.00
2022-10-02T04:17:34.265Z,11.13
2022-10-02T04:20:14.107Z,9.60
2022-10-02T04:22:47.016Z,8.88
2022-10-02T04:25:18.755Z,6.80
2022-10-02T04:27:56.174Z,7.13
2022-10-02T04:30:25.424Z,9.57
2022-10-02T04:32:57.431Z,6.70
2022-10-02T04:35:34.396Z,9.45
2022-10-02T04:38:22.776Z,11.20
2022-10-02T04:41:04.538Z,9.57
2022-10-02T04:43:47.736Z,10.17
2022-10-02T04:46:34.620Z,9.68
2022-10-02T04:49:20.084Z,11.57
2022-10-02T04:52:30.418Z,11.63
2022-10-02T04:55:18.781Z,5.13
2022-10-02T04:58:00.683Z,10.57
2022-10-02T05:00:37.300Z,11.27
2022-10-02T05:03:29.074Z,10.50
2022-10-02T05:06:22.202Z,11.48
2022-10-02T05:09:02.430Z,8.25
2022-10-02T05:11:54.943Z,11.35
2022-10-02T05:14:54.745Z,9.63
2022-10-02T05:17:41.795Z,10.65
2022-10-02T05:20:25.579Z,9.15
2022-10-02T05:23:05.434Z,9.63
2022-10-02T05:25:56.569Z,11.15
2022-10-02T05:28:40.863Z,9.10
2022-10-02T05:31:21.240Z,9.80
2022-10-02T05:34:07.095Z,14.30
2022-10-02T05:36:58.034Z,12.60
2022-10-02T05:39:32.246Z,9.55
2022-10-02T05:42:09.206Z,9.07
2022-10-02T05:44:41.322Z,13.70
2022-10-02T05:47:16.000Z,15.55
2022-10-02T05:49:52.158Z,12.27
2022-10-02T05:52:24.911Z,9.73
2022-10-02T05:54:59.152Z,14.13
2022-10-02T05:57:34.261Z,11.02
2022-10-02T06:00:28.559Z,10.57
2022-10-02T06:03:08.129Z,11.27
2022-10-02T06:05:45.510Z,14.82
2022-10-02T06:08:19.019Z,13.00
2022-10-02T06:10:51.639Z,13.00
2022-10-02T06:13:26.098Z,15.47
2022-10-02T06:16:01.338Z,10.10
2022-10-02T06:18:33.249Z,11.48
2022-10-02T06:21:06.270Z,13.00
2022-10-02T06:23:38.446Z,13.23
2022-10-02T06:26:12.146Z,11.20
2022-10-02T06:28:49.741Z,9.25
2022-10-02T06:31:23.313Z,12.55
2022-10-02T06:33:53.518Z,10.45
2022-10-02T06:36:46.971Z,9.20
2022-10-02T06:39:32.269Z,13.63
2022-10-02T06:42:12.975Z,12.65
2022-10-02T06:44:54.099Z,8.13
2022-10-02T06:47:38.752Z,10.88
2022-10-02T06:50:27.559Z,9.40
2022-10-02T06:53:03.793Z,11.50
2022-10-02T06:55:46.365Z,9.93
2022-10-02T06:58:40.843Z,6.10
2022-10-02T07:01:24.076Z,12.48
2022-10-02T07:04:09.122Z,7.55
2022-10-02T07:06:47.388Z,9.30
2022-10-02T07:09:40.679Z,8.75
2022-10-02T07:12:20.740Z,12.77
2022-10-02T07:15:03.860Z,10.20
2022-10-02T07:17:43.732Z,10.32
2022-10-02T07:20:32.765Z,6.82
2022-10-02T07:23:35.649Z,9.25
2022-10-02T07:26:23.776Z,6.65
2022-10-02T07:29:02.691Z,8.65
2022-10-02T07:31:41.703Z,9.23
2022-10-02T07:34:24.995Z,9.90
2022-10-02T07:37:05.484Z,6.25
2022-10-02T07:39:46.378Z,9.50
2022-10-02T07:42:38.554Z,7.97
2022-10-02T07:45:29.213Z,10.63
2022-10-02T07:48:29.695Z,7.23
2022-10-02T07:51:29.292Z,4.95
2022-10-02T07:54:09.869Z,8.57
2022-10-02T07:56:39.835Z,7.47
2022-10-02T07:59:13.526Z,5.32
2022-10-02T08:01:43.873Z,8.82
2022-10-02T08:04:18.849Z,6.85
2022-10-02T08:06:52.367Z,10.90
2022-10-02T08:09:24.534Z,11.33
2022-10-02T08:11:57.978Z,10.02
2022-10-02T08:14:32.094Z,8.65
2022-10-02T08:17:10.852Z,7.03
2022-10-02T08:19:46.325Z,6.13
2022-10-02T08:22:25.602Z,7.40
2022-10-02T08:24:58.334Z,12.02
2022-10-02T08:27:45.987Z,9.07
2022-10-02T08:30:15.729Z,6.70
2022-10-02T08:32:47.700Z,9.38
2022-10-02T08:35:19.686Z,14.83
2022-10-02T08:38:10.201Z,7.68
2022-10-02T08:41:16.500Z,11.73
2022-10-02T08:44:28.101Z,9.23
2022-10-02T08:47:21.268Z,14.13
2022-10-02T08:50:29.304Z,7.35
2022-10-02T08:53:31.560Z,7.72
2022-10-02T08:56:19.981Z,14.90
2022-10-02T08:59:19.125Z,10.57
2022-10-02T09:02:19.681Z,10.35
2022-10-02T09:05:25.932Z,14.27
2022-10-02T09:08:39.795Z,10.13
2022-10-02T09:11:45.526Z,10.65
2022-10-02T09:14:45.217Z,10.27
2022-10-02T09:17:48.582Z,10.23
2022-10-02T09:20:42.308Z,6.83
2022-10-02T09:24:03.069Z,13.30
2022-10-02T09:27:04.765Z,10.57
2022-10-02T09:30:13.317Z,12.32
2022-10-02T09:33:21.041Z,12.38
2022-10-02T09:36:26.679Z,10.48
2022-10-02T09:39:39.300Z,11.10
2022-10-02T09:42:47.353Z,14.07
2022-10-02T09:45:58.799Z,17.23
2022-10-02T09:49:06.184Z,12.77
2022-10-02T09:52:20.244Z,22.05
2022-10-02T09:55:29.309Z,10.68
2022-10-02T09:58:35.863Z,12.20
2022-10-02T10:01:35.393Z,7.15
2022-10-02T10:05:05.453Z,7.90
2022-10-02T10:08:00.343Z,11.10
2022-10-02T10:11:00.523Z,8.35
2022-10-02T10:14:14.170Z,11.32
2022-10-02T10:17:09.005Z,9.73
2022-10-02T10:20:07.397Z,8.75
2022-10-02T10:23:07.555Z,5.97
2022-10-02T10:26:09.723Z,7.70
2022-10-02T10:29:12.142Z,9.63
2022-10-02T10:32:12.948Z,9.60
2022-10-02T10:35:23.167Z,15.50
2022-10-02T10:38:33.470Z,7.15
2022-10-02T10:41:25.947Z,10.32
2022-10-02T10:44:25.741Z,6.68
2022-10-02T10:47:25.561Z,9.18
2022-10-02T10:50:25.389Z,9.52
2022-10-02T10:53:14.376Z,11.77
2022-10-02T10:56:04.083Z,12.48
2022-10-02T10:58:52.879Z,9.98
2022-10-02T11:01:24.322Z,8.90
2022-10-02T11:04:26.516Z,5.45
2022-10-02T11:07:19.758Z,11.98
2022-10-02T11:10:17.033Z,9.35
2022-10-02T11:13:16.131Z,17.10
2022-10-02T11:16:21.534Z,7.55
2022-10-02T11:19:30.175Z,16.10
2022-10-02T11:22:14.714Z,17.00
2022-10-02T11:25:20.630Z,10.80
2022-10-02T11:28:22.765Z,7.75
2022-10-02T11:31:02.848Z,8.27
2022-10-02T11:33:50.212Z,6.18
2022-10-02T11:36:48.834Z,9.38
2022-10-02T11:39:50.001Z,5.68
2022-10-02T11:42:36.125Z,4.55
2022-10-02T11:45:19.588Z,3.35
2022-10-02T11:48:19.654Z,4.55
2022-10-02T11:51:12.905Z,4.97
2022-10-02T11:53:59.964Z,6.60
2022-10-02T11:57:01.662Z,9.10
2022-10-02T11:59:49.332Z,6.18
2022-10-02T12:02:26.100Z,8.85
2022-10-02T12:05:08.452Z,11.10
2022-10-02T12:07:44.146Z,8.70
2022-10-02T12:10:28.299Z,7.78
2022-10-02T12:13:15.867Z,7.18
2022-10-02T12:15:52.576Z,2.40
2022-10-02T12:18:29.176Z,7.25
2022-10-02T12:21:36.792Z,9.50
2022-10-02T12:24:34.849Z,4.18
2022-10-02T12:27:14.540Z,6.75
2022-10-02T12:30:04.126Z,16.40
2022-10-02T12:33:09.407Z,8.35
2022-10-02T12:35:50.637Z,3.53
2022-10-02T12:38:47.663Z,8.13
2022-10-02T12:41:35.610Z,6.63
2022-10-02T12:44:32.074Z,10.77
2022-10-02T12:47:19.581Z,4.53
2022-10-02T12:50:02.816Z,3.83
2022-10-02T12:52:59.484Z,3.83
2022-10-02T12:56:04.376Z,6.55
2022-10-02T12:58:44.803Z,11.25
2022-10-02T13:01:46.992Z,5.20
2022-10-02T13:04:52.173Z,3.97
2022-10-02T13:08:09.536Z,7.63
2022-10-02T13:10:45.301Z,5.55
2022-10-02T13:13:35.385Z,5.18
2022-10-02T13:16:12.736Z,4.07
2022-10-02T13:18:58.190Z,7.30
2022-10-02T13:21:47.103Z,10.80
2022-10-02T13:24:33.482Z,5.70
2022-10-02T13:27:16.967Z,8.55
2022-10-02T13:30:01.275Z,8.63
2022-10-02T13:32:55.089Z,5.78
2022-10-02T13:35:39.760Z,5.70
2022-10-02T13:38:31.289Z,2.78
2022-10-02T13:41:09.653Z,8.65
2022-10-02T13:43:58.668Z,7.93
2022-10-02T13:46:39.626Z,2.72
2022-10-02T13:49:19.125Z,5.30
2022-10-02T13:51:57.600Z,5.20
2022-10-02T13:54:50.099Z,5.45
2022-10-02T13:57:39.915Z,4.18
2022-10-02T14:00:14.340Z,2.45
2022-10-02T14:03:04.792Z,1.98
2022-10-02T14:05:41.934Z,1.80
2022-10-02T14:08:38.805Z,4.22
2022-10-02T14:11:19.950Z,3.53
2022-10-02T14:14:03.400Z,1.90
2022-10-02T14:16:45.606Z,1.65
2022-10-02T14:19:28.688Z,2.22
2022-10-02T14:22:12.737Z,3.90
2022-10-02T14:25:00.898Z,2.30
2022-10-02T14:28:04.270Z,5.45
2022-10-02T14:30:45.416Z,2.53
2022-10-02T14:33:22.226Z,3.13
2022-10-02T14:35:56.787Z,2.45
2022-10-02T14:38:37.174Z,4.15
2022-10-02T14:41:20.670Z,2.95
2022-10-02T14:44:08.119Z,3.92
2022-10-02T14:46:54.011Z,2.90
2022-10-02T14:49:47.630Z,2.03
2022-10-02T14:52:30.766Z,4.70
2022-10-02T14:55:16.844Z,2.60
2022-10-02T14:58:03.928Z,3.00
2022-10-02T15:00:40.844Z,1.85
2022-10-02T15:03:29.206Z,2.08
2022-10-02T15:06:21.004Z,1.92
2022-10-02T15:08:55.832Z,4.13
2022-10-02T15:11:47.719Z,2.10
2022-10-02T15:14:22.787Z,3.15
2022-10-02T15:17:18.666Z,4.88
2022-10-02T15:19:51.785Z,2.97
2022-10-02T15:22:24.603Z,1.77
2022-10-02T15:24:57.308Z,1.00
2022-10-02T15:27:27.934Z,1.38
2022-10-02T15:30:17.296Z,1.05
2022-10-02T15:33:13.239Z,4.75
2022-10-02T15:36:06.936Z,2.08
2022-10-02T15:39:28.202Z,2.17
2022-10-02T15:42:05.950Z,3.80
2022-10-02T15:45:05.081Z,2.45
2022-10-02T15:47:53.987Z,1.25
2022-10-02T15:50:31.689Z,2.58
2022-10-02T15:53:27.842Z,1.27
2022-10-02T15:56:05.412Z,1.63
2022-10-02T15:58:51.882Z,1.50
2022-10-02T16:01:36.611Z,2.00
2022-10-02T16:04:17.560Z,5.20
2022-10-02T16:07:13.717Z,2.65
2022-10-02T16:09:50.912Z,3.33
2022-10-02T16:12:38.410Z,3.63
2022-10-02T16:15:22.929Z,6.25
2022-10-02T16:18:20.515Z,3.75
2022-10-02T16:21:15.324Z,3.33
2022-10-02T16:24:08.765Z,5.80
2022-10-02T16:26:58.799Z,6.03
2022-10-02T16:29:35.042Z,3.78
2022-10-02T16:32:15.721Z,2.13
2022-10-02T16:34:59.307Z,2.28
2022-10-02T16:37:40.618Z,1.40
2022-10-02T16:40:22.883Z,1.17
2022-10-02T16:43:12.807Z,2.40
2022-10-02T16:46:00.299Z,3.15
2022-10-02T16:48:40.321Z,4.15
2022-10-02T16:51:26.503Z,1.27
2022-10-02T16:54:04.949Z,1.52
2022-10-02T16:56:42.427Z,4.10
2022-10-02T16:59:17.097Z,5.65
2022-10-02T17:02:13.229Z,4.47
2022-10-02T17:04:46.826Z,4.10
2022-10-02T17:07:41.707Z,3.53
2022-10-02T17:10:23.705Z,8.05
2022-10-02T17:12:58.934Z,5.37
2022-10-02T17:15:34.875Z,4.33
2022-10-02T17:18:16.893Z,2.70
2022-10-02T17:20:50.786Z,2.07
2022-10-02T17:23:25.761Z,3.87
2022-10-02T17:26:02.933Z,1.83
2022-10-02T17:28:37.741Z,4.07
2022-10-02T17:31:35.753Z,3.63
2022-10-02T17:34:19.941Z,1.58
2022-10-02T17:37:02.316Z,1.35
2022-10-02T17:39:44.147Z,2.63
2022-10-02T17:42:23.516Z,1.23
2022-10-02T17:45:00.573Z,3.20
2022-10-02T17:48:07.424Z,4.77
2022-10-02T17:51:01.969Z,5.17
2022-10-02T17:54:02.743Z,4.73
2022-10-02T17:56:49.910Z,2.08
2022-10-02T17:59:37.338Z,3.33
2022-10-02T18:02:17.829Z,3.00
2022-10-02T18:05:02.125Z,5.37
2022-10-02T18:07:43.587Z,2.78
2022-10-02T18:10:23.988Z,3.72
2022-10-02T18:13:17.361Z,6.05
2022-10-02T18:16:22.288Z,4.90
2022-10-02T18:19:14.986Z,4.32
2022-10-02T18:21:51.944Z,3.22
2022-10-02T18:24:51.839Z,3.13
2022-10-02T18:27:42.861Z,2.72
2022-10-02T18:30:19.794Z,3.45
2022-10-02T18:33:15.058Z,2.70
2022-10-02T18:36:01.529Z,6.13
2022-10-02T18:38:32.662Z,2.70
2022-10-02T18:41:20.883Z,2.22
2022-10-02T18:44:02.890Z,2.40
2022-10-02T18:46:45.350Z,4.33
2022-10-02T18:49:37.454Z,2.67
2022-10-02T18:52:36.697Z,3.03
2022-10-02T18:55:25.010Z,4.38
2022-10-02T18:58:07.597Z,4.10
2022-10-02T19:01:03.723Z,5.47
2022-10-02T19:03:42.657Z,2.00
2022-10-02T19:06:16.232Z,4.30
2022-10-02T19:09:21.503Z,3.63
2022-10-02T19:11:57.776Z,3.90
2022-10-02T19:14:34.880Z,6.03
2022-10-02T19:17:06.026Z,4.47
2022-10-02T19:19:36.681Z,3.72
2022-10-02T19:22:18.770Z,2.53
2022-10-02T19:24:50.662Z,6.00
2022-10-02T19:27:24.848Z,5.97
2022-10-02T19:29:57.836Z,7.07
2022-10-02T19:32:31.003Z,12.63
2022-10-02T19:36:01.281Z,15.13
2022-10-02T19:38:34.240Z,7.30
2022-10-02T19:41:09.854Z,10.43
2022-10-02T19:43:48.111Z,14.27
2022-10-02T19:46:22.896Z,12.45
2022-10-02T19:48:56.636Z,11.35
2022-10-02T19:51:26.219Z,12.47
2022-10-02T19:54:01.470Z,11.40
2022-10-02T19:56:35.657Z,9.87
2022-10-02T19:59:08.877Z,11.27
2022-10-02T20:01:46.850Z,13.90
2022-10-02T20:04:19.514Z,6.07
2022-10-02T20:06:52.902Z,6.63
2022-10-02T20:09:28.688Z,45.63
2022-10-02T20:12:02.367Z,36.20
2022-10-02T20:14:37.041Z,21.60
2022-10-02T20:17:10.976Z,13.90
2022-10-02T20:19:51.708Z,12.67
2022-10-02T20:22:31.307Z,9.70
2022-10-02T20:25:04.705Z,9.90
2022-10-02T20:27:42.288Z,10.93
2022-10-02T20:30:15.335Z,11.53
2022-10-02T20:32:50.160Z,12.97
2022-10-02T20:35:26.909Z,11.47
2022-10-02T20:37:57.783Z,11.20
2022-10-02T20:40:31.398Z,12.47
2022-10-02T20:43:06.016Z,11.97
2022-10-02T20:45:40.959Z,13.17
2022-10-02T20:49:07.561Z,14.83
2022-10-02T20:52:01.802Z,14.53
2022-10-02T20:54:43.447Z,14.03
2022-10-02T20:57:56.025Z,13.00
2022-10-02T21:00:22.262Z,14.90
2022-10-02T21:03:23.861Z,12.63
2022-10-02T21:06:33.169Z,15.77
2022-10-02T21:09:22.402Z,18.40
2022-10-02T21:12:23.429Z,14.23
2022-10-02T21:15:08.315Z,13.10
2022-10-02T21:18:17.976Z,13.60
2022-10-02T21:21:22.391Z,18.97
2022-10-02T21:24:16.262Z,19.20
2022-10-02T21:27:19.042Z,15.37
2022-10-02T21:30:02.135Z,15.20
2022-10-02T21:32:51.240Z,12.67
2022-10-02T21:35:36.804Z,14.10
2022-10-02T21:38:41.950Z,14.33
2022-10-02T21:41:48.588Z,12.37
2022-10-02T21:45:05.043Z,16.73
2022-10-02T21:48:14.638Z,16.80
2022-10-02T21:51:34.580Z,19.90
2022-10-02T21:54:45.323Z,20.83
2022-10-02T21:57:54.965Z,14.40
2022-10-02T22:00:26.554Z,21.47
2022-10-02T22:03:18.630Z,19.70
2022-10-02T22:06:38.344Z,14.17
2022-10-02T22:09:26.796Z,15.93
2022-10-02T22:12:13.541Z,20.10
2022-10-02T22:14:49.461Z,15.60
2022-10-02T22:17:27.066Z,21.87
2022-10-02T22:20:12.508Z,18.57
2022-10-02T22:23:06.228Z,16.83
2022-10-02T22:25:48.358Z,21.57
2022-10-02T22:28:41.396Z,17.17
2022-10-02T22:31:34.659Z,25.77
2022-10-02T22:34:22.535Z,16.90
2022-10-02T22:37:18.214Z,23.03
2022-10-02T22:39:53.625Z,21.83
2022-10-02T22:42:29.489Z,25.60
2022-10-02T22:45:02.877Z,16.70
2022-10-02T22:47:39.591Z,22.03
2022-10-02T22:50:13.518Z,17.47
2022-10-02T22:52:50.049Z,24.13
2022-10-02T22:55:26.125Z,23.63
2022-10-02T22:58:00.091Z,20.07
2022-10-02T23:00:33.806Z,18.73
2022-10-02T23:03:09.420Z,22.87
2022-10-02T23:05:44.068Z,20.93
2022-10-02T23:08:24.325Z,23.17
2022-10-02T23:11:01.374Z,20.83
2022-10-02T23:13:35.499Z,19.60
2022-10-02T23:16:10.152Z,19.47
2022-10-02T23:18:42.916Z,20.17
2022-10-02T23:21:29.648Z,17.43
2022-10-02T23:24:07.253Z,22.80
2022-10-02T23:26:40.447Z,24.87
2022-10-02T23:29:21.153Z,20.33
2022-10-02T23:31:55.392Z,21.55
2022-10-02T23:34:38.177Z,20.83
2022-10-02T23:37:17.127Z,20.53
2022-10-02T23:39:54.997Z,19.60
2022-10-02T23:42:28.815Z,20.57
2022-10-02T23:45:10.305Z,25.90
2022-10-02T23:47:54.726Z,31.00
2022-10-02T23:50:28.009Z,20.27
2022-10-02T23:53:19.568Z,23.07
2022-10-02T23:56:07.482Z,24.23
2022-10-02T23:58:50.706Z,23.20
